sensor_id;sensor_type;location;lat;lon;timestamp;temperature;humidity
12847;DHT22;6492;48.128;8.320;2023-02-28T00:04:02;-6.00;29.00
12847;DHT22;6492;48.128;8.320;2023-02-28T00:08:04;-6.00;29.30
12847;DHT22;6492;48.128;8.320;2023-02-28T00:12:07;-6.00;29.40
12847;DHT22;6492;48.128;8.320;2023-02-28T00:16:12;-5.90;29.80
12847;DHT22;6492;48.128;8.320;2023-02-28T00:20:15;-5.90;29.70
12847;DHT22;6492;48.128;8.320;2023-02-28T00:24:17;-5.80;30.00
12847;DHT22;6492;48.128;8.320;2023-02-28T00:28:21;-5.80;30.00
12847;DHT22;6492;48.128;8.320;2023-02-28T00:32:22;-5.80;30.20
12847;DHT22;6492;48.128;8.320;2023-02-28T00:36:24;-5.80;30.40
12847;DHT22;6492;48.128;8.320;2023-02-28T00:40:26;-5.70;30.40
12847;DHT22;6492;48.128;8.320;2023-02-28T00:44:30;-5.70;30.60
12847;DHT22;6492;48.128;8.320;2023-02-28T00:48:32;-5.70;30.50
12847;DHT22;6492;48.128;8.320;2023-02-28T00:52:34;-5.70;30.60
12847;DHT22;6492;48.128;8.320;2023-02-28T00:56:36;-5.70;30.90
12847;DHT22;6492;48.128;8.320;2023-02-28T01:00:39;-5.70;30.90
12847;DHT22;6492;48.128;8.320;2023-02-28T01:04:41;-5.60;31.10
12847;DHT22;6492;48.128;8.320;2023-02-28T01:08:43;-5.70;30.90
12847;DHT22;6492;48.128;8.320;2023-02-28T01:12:44;-5.70;31.10
12847;DHT22;6492;48.128;8.320;2023-02-28T01:16:48;-5.70;31.30
12847;DHT22;6492;48.128;8.320;2023-02-28T01:20:49;-5.70;31.50
12847;DHT22;6492;48.128;8.320;2023-02-28T01:24:52;-5.70;32.00
12847;DHT22;6492;48.128;8.320;2023-02-28T01:28:54;-5.70;31.90
12847;DHT22;6492;48.128;8.320;2023-02-28T01:32:57;-5.70;32.10
12847;DHT22;6492;48.128;8.320;2023-02-28T01:36:59;-5.70;32.10
12847;DHT22;6492;48.128;8.320;2023-02-28T01:41:01;-5.70;32.40
12847;DHT22;6492;48.128;8.320;2023-02-28T01:45:14;-5.70;32.60
12847;DHT22;6492;48.128;8.320;2023-02-28T01:49:21;-5.70;32.80
12847;DHT22;6492;48.128;8.320;2023-02-28T01:53:28;-5.70;32.90
12847;DHT22;6492;48.128;8.320;2023-02-28T01:57:34;-5.70;32.90
12847;DHT22;6492;48.128;8.320;2023-02-28T02:01:38;-5.70;33.30
12847;DHT22;6492;48.128;8.320;2023-02-28T02:05:41;-5.70;33.60
12847;DHT22;6492;48.128;8.320;2023-02-28T02:09:48;-5.70;33.70
12847;DHT22;6492;48.128;8.320;2023-02-28T02:14:10;-5.70;34.00
12847;DHT22;6492;48.128;8.320;2023-02-28T02:18:25;-5.70;34.50
12847;DHT22;6492;48.128;8.320;2023-02-28T02:23:01;-5.70;34.80
12847;DHT22;6492;48.128;8.320;2023-02-28T02:27:13;-5.70;35.30
12847;DHT22;6492;48.128;8.320;2023-02-28T02:31:50;-5.70;36.20
12847;DHT22;6492;48.128;8.320;2023-02-28T02:35:57;-5.80;36.80
12847;DHT22;6492;48.128;8.320;2023-02-28T02:40:08;-5.80;37.40
12847;DHT22;6492;48.128;8.320;2023-02-28T02:44:18;-5.80;38.10
12847;DHT22;6492;48.128;8.320;2023-02-28T02:48:26;-5.80;38.40
12847;DHT22;6492;48.128;8.320;2023-02-28T02:52:34;-5.80;38.80
12847;DHT22;6492;48.128;8.320;2023-02-28T02:56:39;-5.90;39.20
12847;DHT22;6492;48.128;8.320;2023-02-28T03:00:45;-5.90;39.40
12847;DHT22;6492;48.128;8.320;2023-02-28T03:04:51;-5.90;39.80
12847;DHT22;6492;48.128;8.320;2023-02-28T03:08:54;-5.90;40.20
12847;DHT22;6492;48.128;8.320;2023-02-28T03:13:16;-5.90;40.30
12847;DHT22;6492;48.128;8.320;2023-02-28T03:17:45;-5.90;40.50
12847;DHT22;6492;48.128;8.320;2023-02-28T03:21:58;-5.90;40.90
12847;DHT22;6492;48.128;8.320;2023-02-28T03:26:11;-5.90;41.60
12847;DHT22;6492;48.128;8.320;2023-02-28T03:30:22;-5.90;41.80
12847;DHT22;6492;48.128;8.320;2023-02-28T03:34:29;-5.90;42.10
12847;DHT22;6492;48.128;8.320;2023-02-28T03:38:34;-5.90;42.20
12847;DHT22;6492;48.128;8.320;2023-02-28T03:42:41;-5.90;42.50
12847;DHT22;6492;48.128;8.320;2023-02-28T03:46:50;-5.90;42.60
12847;DHT22;6492;48.128;8.320;2023-02-28T03:50:56;-6.00;42.40
12847;DHT22;6492;48.128;8.320;2023-02-28T03:55:02;-6.00;42.70
12847;DHT22;6492;48.128;8.320;2023-02-28T03:59:12;-6.00;42.70
12847;DHT22;6492;48.128;8.320;2023-02-28T04:03:16;-6.00;43.10
12847;DHT22;6492;48.128;8.320;2023-02-28T04:07:18;-6.10;43.10
12847;DHT22;6492;48.128;8.320;2023-02-28T04:11:23;-6.10;43.40
12847;DHT22;6492;48.128;8.320;2023-02-28T04:15:26;-6.10;43.50
12847;DHT22;6492;48.128;8.320;2023-02-28T04:19:28;-6.10;43.70
12847;DHT22;6492;48.128;8.320;2023-02-28T04:23:30;-6.10;43.30
12847;DHT22;6492;48.128;8.320;2023-02-28T04:27:32;-6.20;43.50
12847;DHT22;6492;48.128;8.320;2023-02-28T04:31:35;-6.20;43.80
12847;DHT22;6492;48.128;8.320;2023-02-28T04:35:37;-6.20;44.20
12847;DHT22;6492;48.128;8.320;2023-02-28T04:39:39;-6.30;44.60
12847;DHT22;6492;48.128;8.320;2023-02-28T04:43:41;-6.30;44.90
12847;DHT22;6492;48.128;8.320;2023-02-28T04:47:48;-6.30;45.00
12847;DHT22;6492;48.128;8.320;2023-02-28T04:51:50;-6.20;45.10
12847;DHT22;6492;48.128;8.320;2023-02-28T04:55:53;-6.20;45.20
12847;DHT22;6492;48.128;8.320;2023-02-28T04:59:55;-6.30;45.20
12847;DHT22;6492;48.128;8.320;2023-02-28T05:04:00;-6.30;45.40
12847;DHT22;6492;48.128;8.320;2023-02-28T05:08:09;-6.30;45.60
12847;DHT22;6492;48.128;8.320;2023-02-28T05:12:11;-6.30;45.70
12847;DHT22;6492;48.128;8.320;2023-02-28T05:16:13;-6.30;45.90
12847;DHT22;6492;48.128;8.320;2023-02-28T05:20:17;-6.40;45.80
12847;DHT22;6492;48.128;8.320;2023-02-28T05:24:19;-6.30;46.20
12847;DHT22;6492;48.128;8.320;2023-02-28T05:28:23;-6.40;46.50
12847;DHT22;6492;48.128;8.320;2023-02-28T05:32:24;-6.40;46.50
12847;DHT22;6492;48.128;8.320;2023-02-28T05:36:28;-6.40;46.40
12847;DHT22;6492;48.128;8.320;2023-02-28T05:40:29;-6.40;46.30
12847;DHT22;6492;48.128;8.320;2023-02-28T05:44:31;-6.40;46.50
12847;DHT22;6492;48.128;8.320;2023-02-28T05:48:34;-6.40;46.80
12847;DHT22;6492;48.128;8.320;2023-02-28T05:52:37;-6.40;47.30
12847;DHT22;6492;48.128;8.320;2023-02-28T05:56:39;-6.40;47.50
12847;DHT22;6492;48.128;8.320;2023-02-28T06:00:44;-6.40;47.60
12847;DHT22;6492;48.128;8.320;2023-02-28T06:04:46;-6.50;48.10
12847;DHT22;6492;48.128;8.320;2023-02-28T06:08:49;-6.40;48.20
12847;DHT22;6492;48.128;8.320;2023-02-28T06:12:50;-6.50;48.10
12847;DHT22;6492;48.128;8.320;2023-02-28T06:16:52;-6.50;48.00
12847;DHT22;6492;48.128;8.320;2023-02-28T06:21:29;-6.40;48.20
12847;DHT22;6492;48.128;8.320;2023-02-28T06:25:33;-6.40;48.60
12847;DHT22;6492;48.128;8.320;2023-02-28T06:29:35;-6.40;48.90
12847;DHT22;6492;48.128;8.320;2023-02-28T06:33:40;-6.40;49.20
12847;DHT22;6492;48.128;8.320;2023-02-28T06:37:43;-6.40;49.10
12847;DHT22;6492;48.128;8.320;2023-02-28T06:41:46;-6.30;49.30
12847;DHT22;6492;48.128;8.320;2023-02-28T06:45:56;-6.30;49.50
12847;DHT22;6492;48.128;8.320;2023-02-28T06:49:58;-6.20;49.70
12847;DHT22;6492;48.128;8.320;2023-02-28T06:54:02;-6.10;50.00
12847;DHT22;6492;48.128;8.320;2023-02-28T06:58:05;-5.70;50.00
12847;DHT22;6492;48.128;8.320;2023-02-28T07:02:15;-5.90;49.70
12847;DHT22;6492;48.128;8.320;2023-02-28T07:06:17;-5.90;49.20
12847;DHT22;6492;48.128;8.320;2023-02-28T07:10:19;-5.80;48.90
12847;DHT22;6492;48.128;8.320;2023-02-28T07:14:22;-5.70;48.70
12847;DHT22;6492;48.128;8.320;2023-02-28T07:18:24;-5.70;48.20
12847;DHT22;6492;48.128;8.320;2023-02-28T07:22:26;-5.60;47.80
12847;DHT22;6492;48.128;8.320;2023-02-28T07:26:29;-5.50;48.40
12847;DHT22;6492;48.128;8.320;2023-02-28T07:30:32;-5.50;47.00
12847;DHT22;6492;48.128;8.320;2023-02-28T07:34:34;-5.40;46.50
12847;DHT22;6492;48.128;8.320;2023-02-28T07:38:36;-5.40;46.10
12847;DHT22;6492;48.128;8.320;2023-02-28T07:42:39;-5.30;46.20
12847;DHT22;6492;48.128;8.320;2023-02-28T07:46:42;-5.30;45.90
12847;DHT22;6492;48.128;8.320;2023-02-28T07:50:45;-5.30;45.50
12847;DHT22;6492;48.128;8.320;2023-02-28T07:54:53;-5.30;45.40
12847;DHT22;6492;48.128;8.320;2023-02-28T07:58:55;-5.30;45.20
12847;DHT22;6492;48.128;8.320;2023-02-28T08:02:58;-5.20;45.00
12847;DHT22;6492;48.128;8.320;2023-02-28T08:07:00;-5.20;44.50
12847;DHT22;6492;48.128;8.320;2023-02-28T08:11:03;-5.10;44.40
12847;DHT22;6492;48.128;8.320;2023-02-28T08:15:06;-5.10;43.80
12847;DHT22;6492;48.128;8.320;2023-02-28T08:19:09;-5.10;43.50
12847;DHT22;6492;48.128;8.320;2023-02-28T08:23:11;-5.00;43.70
12847;DHT22;6492;48.128;8.320;2023-02-28T08:27:13;-5.00;43.60
12847;DHT22;6492;48.128;8.320;2023-02-28T08:31:16;-4.90;43.20
12847;DHT22;6492;48.128;8.320;2023-02-28T08:35:19;-4.80;42.60
12847;DHT22;6492;48.128;8.320;2023-02-28T08:39:21;-4.80;42.30
12847;DHT22;6492;48.128;8.320;2023-02-28T08:43:23;-4.70;42.00
12847;DHT22;6492;48.128;8.320;2023-02-28T08:47:25;-4.60;41.90
12847;DHT22;6492;48.128;8.320;2023-02-28T08:51:29;-4.50;41.50
12847;DHT22;6492;48.128;8.320;2023-02-28T08:55:31;-4.40;41.00
12847;DHT22;6492;48.128;8.320;2023-02-28T08:59:33;-4.30;40.00
12847;DHT22;6492;48.128;8.320;2023-02-28T09:03:34;-4.30;39.30
12847;DHT22;6492;48.128;8.320;2023-02-28T09:07:37;-4.20;38.50
12847;DHT22;6492;48.128;8.320;2023-02-28T09:11:39;-4.10;38.50
12847;DHT22;6492;48.128;8.320;2023-02-28T09:15:41;-4.10;37.60
12847;DHT22;6492;48.128;8.320;2023-02-28T09:19:47;-4.00;37.50
12847;DHT22;6492;48.128;8.320;2023-02-28T09:23:50;-3.90;37.50
12847;DHT22;6492;48.128;8.320;2023-02-28T09:27:52;-3.80;36.00
12847;DHT22;6492;48.128;8.320;2023-02-28T09:31:54;-3.70;35.80
12847;DHT22;6492;48.128;8.320;2023-02-28T09:35:59;-3.60;35.80
12847;DHT22;6492;48.128;8.320;2023-02-28T09:40:03;-3.50;34.70
12847;DHT22;6492;48.128;8.320;2023-02-28T09:44:07;-3.40;34.40
12847;DHT22;6492;48.128;8.320;2023-02-28T09:48:17;-3.40;34.20
12847;DHT22;6492;48.128;8.320;2023-02-28T09:52:23;-3.20;33.70
12847;DHT22;6492;48.128;8.320;2023-02-28T09:56:32;-3.10;32.70
12847;DHT22;6492;48.128;8.320;2023-02-28T10:00:39;-3.00;32.60
12847;DHT22;6492;48.128;8.320;2023-02-28T10:04:44;-3.00;31.30
12847;DHT22;6492;48.128;8.320;2023-02-28T10:08:58;-2.90;31.70
12847;DHT22;6492;48.128;8.320;2023-02-28T10:13:06;-2.80;31.40
12847;DHT22;6492;48.128;8.320;2023-02-28T10:17:17;-2.70;31.00
12847;DHT22;6492;48.128;8.320;2023-02-28T10:21:25;-2.60;30.20
12847;DHT22;6492;48.128;8.320;2023-02-28T10:25:29;-2.40;29.30
12847;DHT22;6492;48.128;8.320;2023-02-28T10:29:33;-2.30;29.10
12847;DHT22;6492;48.128;8.320;2023-02-28T10:33:35;-2.20;28.40
12847;DHT22;6492;48.128;8.320;2023-02-28T10:37:37;-2.00;28.10
12847;DHT22;6492;48.128;8.320;2023-02-28T10:41:43;-1.90;27.40
12847;DHT22;6492;48.128;8.320;2023-02-28T10:45:56;-1.80;26.70
12847;DHT22;6492;48.128;8.320;2023-02-28T10:49:59;-1.70;26.40
12847;DHT22;6492;48.128;8.320;2023-02-28T10:54:00;-1.70;26.20
12847;DHT22;6492;48.128;8.320;2023-02-28T10:58:42;-1.60;26.00
12847;DHT22;6492;48.128;8.320;2023-02-28T11:02:48;-1.50;25.60
12847;DHT22;6492;48.128;8.320;2023-02-28T11:06:57;-1.40;25.60
12847;DHT22;6492;48.128;8.320;2023-02-28T11:11:05;-1.40;24.90
12847;DHT22;6492;48.128;8.320;2023-02-28T11:15:21;-1.30;25.30
12847;DHT22;6492;48.128;8.320;2023-02-28T11:19:28;-1.10;24.60
12847;DHT22;6492;48.128;8.320;2023-02-28T11:23:35;-1.20;22.70
12847;DHT22;6492;48.128;8.320;2023-02-28T11:27:47;-1.40;22.90
12847;DHT22;6492;48.128;8.320;2023-02-28T11:32:11;-1.40;22.80
12847;DHT22;6492;48.128;8.320;2023-02-28T11:36:18;-1.30;22.30
12847;DHT22;6492;48.128;8.320;2023-02-28T11:40:24;-1.50;22.70
12847;DHT22;6492;48.128;8.320;2023-02-28T11:44:41;-1.40;22.70
12847;DHT22;6492;48.128;8.320;2023-02-28T11:48:52;-1.20;22.40
12847;DHT22;6492;48.128;8.320;2023-02-28T11:53:01;-1.10;22.20
12847;DHT22;6492;48.128;8.320;2023-02-28T11:57:19;-1.00;22.30
12847;DHT22;6492;48.128;8.320;2023-02-28T12:01:42;-0.80;21.90
12847;DHT22;6492;48.128;8.320;2023-02-28T12:05:52;-0.80;20.80
12847;DHT22;6492;48.128;8.320;2023-02-28T12:10:02;-0.80;20.40
12847;DHT22;6492;48.128;8.320;2023-02-28T12:14:21;-0.70;20.70
12847;DHT22;6492;48.128;8.320;2023-02-28T12:18:59;-0.50;20.40
12847;DHT22;6492;48.128;8.320;2023-02-28T12:23:21;-0.30;20.50
12847;DHT22;6492;48.128;8.320;2023-02-28T12:27:28;-0.10;19.30
12847;DHT22;6492;48.128;8.320;2023-02-28T12:31:33;0.00;19.00
12847;DHT22;6492;48.128;8.320;2023-02-28T12:35:41;0.00;18.50
12847;DHT22;6492;48.128;8.320;2023-02-28T12:39:48;0.20;18.70
12847;DHT22;6492;48.128;8.320;2023-02-28T12:43:57;0.40;19.10
12847;DHT22;6492;48.128;8.320;2023-02-28T12:48:05;0.30;17.60
12847;DHT22;6492;48.128;8.320;2023-02-28T12:52:08;0.30;17.40
12847;DHT22;6492;48.128;8.320;2023-02-28T12:56:16;0.30;17.50
12847;DHT22;6492;48.128;8.320;2023-02-28T13:00:22;0.30;18.10
12847;DHT22;6492;48.128;8.320;2023-02-28T13:04:47;0.40;17.60
12847;DHT22;6492;48.128;8.320;2023-02-28T13:09:04;0.30;17.20
12847;DHT22;6492;48.128;8.320;2023-02-28T13:13:11;0.30;17.70
12847;DHT22;6492;48.128;8.320;2023-02-28T13:17:19;0.40;17.50
12847;DHT22;6492;48.128;8.320;2023-02-28T13:21:26;0.50;16.50
12847;DHT22;6492;48.128;8.320;2023-02-28T13:25:50;0.40;16.80
12847;DHT22;6492;48.128;8.320;2023-02-28T13:29:53;0.30;17.00
12847;DHT22;6492;48.128;8.320;2023-02-28T13:34:15;0.40;17.70
12847;DHT22;6492;48.128;8.320;2023-02-28T13:38:35;0.30;17.20
12847;DHT22;6492;48.128;8.320;2023-02-28T13:42:47;0.30;16.50
12847;DHT22;6492;48.128;8.320;2023-02-28T13:47:22;0.40;16.60
12847;DHT22;6492;48.128;8.320;2023-02-28T13:51:38;0.40;17.00
12847;DHT22;6492;48.128;8.320;2023-02-28T13:55:45;0.70;17.60
12847;DHT22;6492;48.128;8.320;2023-02-28T13:59:54;1.00;16.90
12847;DHT22;6492;48.128;8.320;2023-02-28T14:04:14;1.00;15.50
12847;DHT22;6492;48.128;8.320;2023-02-28T14:08:22;1.00;15.20
12847;DHT22;6492;48.128;8.320;2023-02-28T14:12:53;1.00;15.20
12847;DHT22;6492;48.128;8.320;2023-02-28T14:16:57;0.80;15.70
12847;DHT22;6492;48.128;8.320;2023-02-28T14:21:14;0.90;16.40
12847;DHT22;6492;48.128;8.320;2023-02-28T14:25:23;1.00;16.30
12847;DHT22;6492;48.128;8.320;2023-02-28T14:30:02;1.20;15.20
12847;DHT22;6492;48.128;8.320;2023-02-28T14:34:23;1.20;15.00
12847;DHT22;6492;48.128;8.320;2023-02-28T14:38:31;1.00;15.00
12847;DHT22;6492;48.128;8.320;2023-02-28T14:42:36;0.90;15.20
12847;DHT22;6492;48.128;8.320;2023-02-28T14:46:43;0.90;15.50
12847;DHT22;6492;48.128;8.320;2023-02-28T14:50:49;0.80;15.60
12847;DHT22;6492;48.128;8.320;2023-02-28T14:54:53;0.80;16.10
12847;DHT22;6492;48.128;8.320;2023-02-28T14:58:57;0.90;16.30
12847;DHT22;6492;48.128;8.320;2023-02-28T15:03:01;0.90;15.60
12847;DHT22;6492;48.128;8.320;2023-02-28T15:07:18;0.80;15.20
12847;DHT22;6492;48.128;8.320;2023-02-28T15:11:20;0.40;15.50
12847;DHT22;6492;48.128;8.320;2023-02-28T15:15:25;-0.10;16.60
12847;DHT22;6492;48.128;8.320;2023-02-28T15:19:30;-0.50;17.70
12847;DHT22;6492;48.128;8.320;2023-02-28T15:24:03;-0.50;19.60
12847;DHT22;6492;48.128;8.320;2023-02-28T15:28:14;-0.10;19.10
12847;DHT22;6492;48.128;8.320;2023-02-28T15:32:35;0.30;18.10
12847;DHT22;6492;48.128;8.320;2023-02-28T15:36:37;0.60;18.20
12847;DHT22;6492;48.128;8.320;2023-02-28T15:40:42;0.70;16.80
12847;DHT22;6492;48.128;8.320;2023-02-28T15:44:44;0.60;15.80
12847;DHT22;6492;48.128;8.320;2023-02-28T15:48:58;0.40;16.10
12847;DHT22;6492;48.128;8.320;2023-02-28T15:53:01;0.40;16.60
12847;DHT22;6492;48.128;8.320;2023-02-28T15:57:06;0.20;16.70
12847;DHT22;6492;48.128;8.320;2023-02-28T16:01:19;0.10;17.20
12847;DHT22;6492;48.128;8.320;2023-02-28T16:05:26;-0.30;18.00
12847;DHT22;6492;48.128;8.320;2023-02-28T16:09:34;-0.40;18.60
12847;DHT22;6492;48.128;8.320;2023-02-28T16:13:38;-0.50;19.20
12847;DHT22;6492;48.128;8.320;2023-02-28T16:17:39;-0.60;19.30
12847;DHT22;6492;48.128;8.320;2023-02-28T16:21:43;-0.70;19.80
12847;DHT22;6492;48.128;8.320;2023-02-28T16:26:16;-0.70;20.50
12847;DHT22;6492;48.128;8.320;2023-02-28T16:30:22;-0.80;20.50
12847;DHT22;6492;48.128;8.320;2023-02-28T16:34:29;-1.00;20.40
12847;DHT22;6492;48.128;8.320;2023-02-28T16:38:32;-1.20;20.70
12847;DHT22;6492;48.128;8.320;2023-02-28T16:42:34;-1.40;21.30
12847;DHT22;6492;48.128;8.320;2023-02-28T16:46:36;-1.60;22.20
12847;DHT22;6492;48.128;8.320;2023-02-28T16:50:38;-1.80;22.80
12847;DHT22;6492;48.128;8.320;2023-02-28T16:54:42;-2.00;23.50
12847;DHT22;6492;48.128;8.320;2023-02-28T16:58:44;-2.20;24.50
12847;DHT22;6492;48.128;8.320;2023-02-28T17:03:04;-2.40;25.10
12847;DHT22;6492;48.128;8.320;2023-02-28T17:07:09;-2.60;25.80
12847;DHT22;6492;48.128;8.320;2023-02-28T17:11:13;-2.80;26.60
12847;DHT22;6492;48.128;8.320;2023-02-28T17:15:17;-3.10;27.60
12847;DHT22;6492;48.128;8.320;2023-02-28T17:19:19;-3.30;28.60
12847;DHT22;6492;48.128;8.320;2023-02-28T17:23:21;-3.40;29.60
12847;DHT22;6492;48.128;8.320;2023-02-28T17:27:27;-3.60;30.60
12847;DHT22;6492;48.128;8.320;2023-02-28T17:31:29;-3.70;31.80
12847;DHT22;6492;48.128;8.320;2023-02-28T17:35:33;-3.90;32.70
12847;DHT22;6492;48.128;8.320;2023-02-28T17:39:43;-4.00;33.40
12847;DHT22;6492;48.128;8.320;2023-02-28T17:43:53;-4.10;34.80
12847;DHT22;6492;48.128;8.320;2023-02-28T17:47:56;-4.20;35.70
12847;DHT22;6492;48.128;8.320;2023-02-28T17:51:59;-4.30;36.80
12847;DHT22;6492;48.128;8.320;2023-02-28T17:56:01;-4.30;37.60
12847;DHT22;6492;48.128;8.320;2023-02-28T18:00:06;-4.40;37.80
12847;DHT22;6492;48.128;8.320;2023-02-28T18:04:08;-4.50;38.70
12847;DHT22;6492;48.128;8.320;2023-02-28T18:08:12;-4.60;39.70
12847;DHT22;6492;48.128;8.320;2023-02-28T18:12:15;-4.60;40.40
12847;DHT22;6492;48.128;8.320;2023-02-28T18:16:20;-4.70;40.80
12847;DHT22;6492;48.128;8.320;2023-02-28T18:20:22;-4.70;41.30
12847;DHT22;6492;48.128;8.320;2023-02-28T18:24:41;-4.80;42.00
12847;DHT22;6492;48.128;8.320;2023-02-28T18:29:05;-4.80;42.90
12847;DHT22;6492;48.128;8.320;2023-02-28T18:33:08;-4.80;43.80
12847;DHT22;6492;48.128;8.320;2023-02-28T18:37:10;-4.90;43.90
12847;DHT22;6492;48.128;8.320;2023-02-28T18:41:12;-4.90;44.10
12847;DHT22;6492;48.128;8.320;2023-02-28T18:45:14;-5.00;44.60
12847;DHT22;6492;48.128;8.320;2023-02-28T18:49:17;-5.00;45.10
12847;DHT22;6492;48.128;8.320;2023-02-28T18:53:26;-5.10;45.40
12847;DHT22;6492;48.128;8.320;2023-02-28T18:57:27;-5.10;46.10
12847;DHT22;6492;48.128;8.320;2023-02-28T19:01:29;-5.20;46.60
12847;DHT22;6492;48.128;8.320;2023-02-28T19:05:34;-5.20;46.60
12847;DHT22;6492;48.128;8.320;2023-02-28T19:09:37;-5.20;47.10
12847;DHT22;6492;48.128;8.320;2023-02-28T19:13:39;-5.20;47.50
12847;DHT22;6492;48.128;8.320;2023-02-28T19:17:55;-5.20;47.60
12847;DHT22;6492;48.128;8.320;2023-02-28T19:21:58;-5.20;47.90
12847;DHT22;6492;48.128;8.320;2023-02-28T19:26:09;-5.30;48.10
12847;DHT22;6492;48.128;8.320;2023-02-28T19:30:13;-5.30;48.70
12847;DHT22;6492;48.128;8.320;2023-02-28T19:34:15;-5.20;48.80
12847;DHT22;6492;48.128;8.320;2023-02-28T19:38:18;-5.20;48.70
12847;DHT22;6492;48.128;8.320;2023-02-28T19:42:20;-5.20;48.70
12847;DHT22;6492;48.128;8.320;2023-02-28T19:46:21;-5.30;48.60
12847;DHT22;6492;48.128;8.320;2023-02-28T19:50:23;-5.30;48.80
12847;DHT22;6492;48.128;8.320;2023-02-28T19:54:29;-5.30;48.70
12847;DHT22;6492;48.128;8.320;2023-02-28T19:58:38;-5.30;48.30
12847;DHT22;6492;48.128;8.320;2023-02-28T20:03:12;-5.40;47.70
12847;DHT22;6492;48.128;8.320;2023-02-28T20:07:14;-5.40;47.90
12847;DHT22;6492;48.128;8.320;2023-02-28T20:11:18;-5.50;47.70
12847;DHT22;6492;48.128;8.320;2023-02-28T20:15:20;-5.60;47.50
12847;DHT22;6492;48.128;8.320;2023-02-28T20:19:22;-5.70;47.50
12847;DHT22;6492;48.128;8.320;2023-02-28T20:23:27;-5.80;48.00
12847;DHT22;6492;48.128;8.320;2023-02-28T20:27:30;-5.90;49.10
12847;DHT22;6492;48.128;8.320;2023-02-28T20:31:33;-5.90;49.80
12847;DHT22;6492;48.128;8.320;2023-02-28T20:35:37;-5.90;50.20
12847;DHT22;6492;48.128;8.320;2023-02-28T20:39:39;-6.00;51.00
12847;DHT22;6492;48.128;8.320;2023-02-28T20:43:42;-5.90;52.10
12847;DHT22;6492;48.128;8.320;2023-02-28T20:47:45;-5.90;52.20
12847;DHT22;6492;48.128;8.320;2023-02-28T20:51:46;-5.90;52.60
12847;DHT22;6492;48.128;8.320;2023-02-28T20:56:07;-5.90;52.80
12847;DHT22;6492;48.128;8.320;2023-02-28T21:00:12;-6.00;52.80
12847;DHT22;6492;48.128;8.320;2023-02-28T21:04:18;-6.00;52.80
12847;DHT22;6492;48.128;8.320;2023-02-28T21:08:20;-6.00;53.40
12847;DHT22;6492;48.128;8.320;2023-02-28T21:12:22;-6.00;53.50
12847;DHT22;6492;48.128;8.320;2023-02-28T21:16:26;-6.10;53.70
12847;DHT22;6492;48.128;8.320;2023-02-28T21:20:29;-6.10;53.40
12847;DHT22;6492;48.128;8.320;2023-02-28T21:24:31;-6.20;53.30
12847;DHT22;6492;48.128;8.320;2023-02-28T21:28:33;-6.30;53.50
12847;DHT22;6492;48.128;8.320;2023-02-28T21:32:36;-6.30;53.80
12847;DHT22;6492;48.128;8.320;2023-02-28T21:36:40;-6.30;54.30
12847;DHT22;6492;48.128;8.320;2023-02-28T21:40:44;-6.40;54.60
12847;DHT22;6492;48.128;8.320;2023-02-28T21:44:50;-6.40;54.50
12847;DHT22;6492;48.128;8.320;2023-02-28T21:48:54;-6.40;55.00
12847;DHT22;6492;48.128;8.320;2023-02-28T21:52:56;-6.40;55.30
12847;DHT22;6492;48.128;8.320;2023-02-28T21:56:58;-6.40;55.50
12847;DHT22;6492;48.128;8.320;2023-02-28T22:01:04;-6.50;55.60
12847;DHT22;6492;48.128;8.320;2023-02-28T22:05:08;-6.50;56.10
12847;DHT22;6492;48.128;8.320;2023-02-28T22:09:10;-6.50;56.30
12847;DHT22;6492;48.128;8.320;2023-02-28T22:13:12;-6.50;56.90
12847;DHT22;6492;48.128;8.320;2023-02-28T22:17:14;-6.40;57.70
12847;DHT22;6492;48.128;8.320;2023-02-28T22:21:17;-6.30;58.10
12847;DHT22;6492;48.128;8.320;2023-02-28T22:25:19;-6.40;58.00
12847;DHT22;6492;48.128;8.320;2023-02-28T22:29:21;-6.30;58.10
12847;DHT22;6492;48.128;8.320;2023-02-28T22:33:23;-6.40;57.80
12847;DHT22;6492;48.128;8.320;2023-02-28T22:37:27;-6.40;57.70
12847;DHT22;6492;48.128;8.320;2023-02-28T22:41:29;-6.50;57.70
12847;DHT22;6492;48.128;8.320;2023-02-28T22:45:34;-6.50;57.70
12847;DHT22;6492;48.128;8.320;2023-02-28T22:49:36;-6.60;57.80
12847;DHT22;6492;48.128;8.320;2023-02-28T22:53:40;-6.60;58.10
12847;DHT22;6492;48.128;8.320;2023-02-28T22:57:42;-6.60;58.40
12847;DHT22;6492;48.128;8.320;2023-02-28T23:01:44;-6.60;58.50
12847;DHT22;6492;48.128;8.320;2023-02-28T23:05:46;-6.70;58.50
12847;DHT22;6492;48.128;8.320;2023-02-28T23:09:49;-6.70;58.40
12847;DHT22;6492;48.128;8.320;2023-02-28T23:13:51;-6.70;58.40
12847;DHT22;6492;48.128;8.320;2023-02-28T23:17:59;-6.80;58.70
12847;DHT22;6492;48.128;8.320;2023-02-28T23:22:03;-6.80;58.80
12847;DHT22;6492;48.128;8.320;2023-02-28T23:26:07;-6.80;58.90
12847;DHT22;6492;48.128;8.320;2023-02-28T23:30:11;-6.90;59.20
12847;DHT22;6492;48.128;8.320;2023-02-28T23:34:14;-6.90;59.30
12847;DHT22;6492;48.128;8.320;2023-02-28T23:38:16;-7.00;59.20
12847;DHT22;6492;48.128;8.320;2023-02-28T23:42:19;-7.00;59.00
12847;DHT22;6492;48.128;8.320;2023-02-28T23:46:22;-7.10;59.10
12847;DHT22;6492;48.128;8.320;2023-02-28T23:50:23;-7.10;59.10
12847;DHT22;6492;48.128;8.320;2023-02-28T23:54:26;-7.20;59.20
12847;DHT22;6492;48.128;8.320;2023-02-28T23:58:29;-7.20;59.50
